Plymouth, California
Current Conditions -  °F | °C
As of 7:35 PM on Saturday 22 Nov 2014 (Local Time) from KPVF Reporting Station
Clear Clear  
Wind Chill:   Ceiling: Unl
Heat Index:   Visibility: 10mi
Dew Point:   Wind: 9mph
Humidity: 100%   Direction: 20°NNE
Pressure: 30.21"   Gusts: NA
Location:  38.48°N, 120.84°W
Report Text: KPVF 230335Z AUTO 02008KT 10SM CLR 08/08 A3021 RMK AO1
Loading
Personal Weather Stations






























Interactive Weather Map New forecast layout! Learn more

10-Day Weather Forecast

Advertisements
Track Severe Weather on mobile